sensor_id;sensor_type;location;lat;lon;timestamp;P1;durP1;ratioP1;P2;durP2;ratioP2
25247;SDS011;13191;47.472;11.214;2023-07-13T00:01:29;1.88;;;0.93;;
25247;SDS011;13191;47.472;11.214;2023-07-13T00:03:58;2.58;;;0.80;;
25247;SDS011;13191;47.472;11.214;2023-07-13T00:06:24;2.28;;;0.85;;
25247;SDS011;13191;47.472;11.214;2023-07-13T00:08:50;2.28;;;0.98;;
25247;SDS011;13191;47.472;11.214;2023-07-13T00:11:16;2.15;;;0.70;;
25247;SDS011;13191;47.472;11.214;2023-07-13T00:13:42;0.73;;;0.43;;
25247;SDS011;13191;47.472;11.214;2023-07-13T00:16:09;0.73;;;0.50;;
25247;SDS011;13191;47.472;11.214;2023-07-13T00:18:36;1.25;;;0.50;;
25247;SDS011;13191;47.472;11.214;2023-07-13T00:21:02;1.20;;;0.63;;
25247;SDS011;13191;47.472;11.214;2023-07-13T00:23:34;1.08;;;0.50;;
25247;SDS011;13191;47.472;11.214;2023-07-13T00:26:01;2.70;;;0.47;;
25247;SDS011;13191;47.472;11.214;2023-07-13T00:28:28;1.80;;;0.50;;
25247;SDS011;13191;47.472;11.214;2023-07-13T00:30:54;2.17;;;0.60;;
25247;SDS011;13191;47.472;11.214;2023-07-13T00:33:19;1.42;;;0.73;;
25247;SDS011;13191;47.472;11.214;2023-07-13T00:35:45;0.82;;;0.38;;
25247;SDS011;13191;47.472;11.214;2023-07-13T00:38:11;1.35;;;0.50;;
25247;SDS011;13191;47.472;11.214;2023-07-13T00:40:36;1.42;;;0.80;;
25247;SDS011;13191;47.472;11.214;2023-07-13T00:43:02;1.23;;;0.68;;
25247;SDS011;13191;47.472;11.214;2023-07-13T00:47:55;3.53;;;1.42;;
25247;SDS011;13191;47.472;11.214;2023-07-13T00:50:22;0.93;;;0.50;;
25247;SDS011;13191;47.472;11.214;2023-07-13T00:52:51;0.98;;;0.50;;
25247;SDS011;13191;47.472;11.214;2023-07-13T00:55:19;2.40;;;0.68;;
25247;SDS011;13191;47.472;11.214;2023-07-13T00:57:46;1.40;;;0.73;;
25247;SDS011;13191;47.472;11.214;2023-07-13T01:00:12;3.60;;;0.80;;
25247;SDS011;13191;47.472;11.214;2023-07-13T01:02:39;1.02;;;0.70;;
25247;SDS011;13191;47.472;11.214;2023-07-13T01:05:13;1.42;;;0.70;;
25247;SDS011;13191;47.472;11.214;2023-07-13T01:07:41;0.95;;;0.50;;
25247;SDS011;13191;47.472;11.214;2023-07-13T01:10:07;2.17;;;0.85;;
25247;SDS011;13191;47.472;11.214;2023-07-13T01:12:33;1.50;;;0.77;;
25247;SDS011;13191;47.472;11.214;2023-07-13T01:14:59;3.97;;;0.70;;
25247;SDS011;13191;47.472;11.214;2023-07-13T01:17:27;1.92;;;1.00;;
25247;SDS011;13191;47.472;11.214;2023-07-13T01:19:53;5.88;;;1.25;;
25247;SDS011;13191;47.472;11.214;2023-07-13T01:22:19;3.30;;;1.00;;
25247;SDS011;13191;47.472;11.214;2023-07-13T01:24:50;1.53;;;0.60;;
25247;SDS011;13191;47.472;11.214;2023-07-13T01:27:16;1.73;;;0.68;;
25247;SDS011;13191;47.472;11.214;2023-07-13T01:29:45;1.10;;;0.60;;
25247;SDS011;13191;47.472;11.214;2023-07-13T01:32:13;0.90;;;0.55;;
25247;SDS011;13191;47.472;11.214;2023-07-13T01:34:48;2.47;;;0.85;;
25247;SDS011;13191;47.472;11.214;2023-07-13T01:37:19;1.55;;;0.80;;
25247;SDS011;13191;47.472;11.214;2023-07-13T01:39:45;2.88;;;1.15;;
25247;SDS011;13191;47.472;11.214;2023-07-13T01:42:10;3.05;;;0.90;;
25247;SDS011;13191;47.472;11.214;2023-07-13T01:44:36;3.55;;;0.68;;
25247;SDS011;13191;47.472;11.214;2023-07-13T01:47:01;5.00;;;0.93;;
25247;SDS011;13191;47.472;11.214;2023-07-13T01:49:27;2.58;;;0.75;;
25247;SDS011;13191;47.472;11.214;2023-07-13T01:51:53;1.80;;;0.80;;
25247;SDS011;13191;47.472;11.214;2023-07-13T01:54:18;3.30;;;0.82;;
25247;SDS011;13191;47.472;11.214;2023-07-13T01:56:44;2.55;;;0.75;;
25247;SDS011;13191;47.472;11.214;2023-07-13T01:59:09;3.58;;;0.98;;
25247;SDS011;13191;47.472;11.214;2023-07-13T02:01:35;1.35;;;0.70;;
25247;SDS011;13191;47.472;11.214;2023-07-13T02:04:01;1.95;;;0.90;;
25247;SDS011;13191;47.472;11.214;2023-07-13T02:06:27;1.48;;;0.73;;
25247;SDS011;13191;47.472;11.214;2023-07-13T02:08:52;1.75;;;0.70;;
25247;SDS011;13191;47.472;11.214;2023-07-13T02:11:18;3.95;;;1.40;;
25247;SDS011;13191;47.472;11.214;2023-07-13T02:13:44;2.40;;;0.90;;
25247;SDS011;13191;47.472;11.214;2023-07-13T02:16:09;3.10;;;0.68;;
25247;SDS011;13191;47.472;11.214;2023-07-13T02:18:35;0.82;;;0.60;;
25247;SDS011;13191;47.472;11.214;2023-07-13T02:21:00;2.35;;;0.60;;
25247;SDS011;13191;47.472;11.214;2023-07-13T02:23:27;1.70;;;0.80;;
25247;SDS011;13191;47.472;11.214;2023-07-13T02:25:56;2.80;;;1.00;;
25247;SDS011;13191;47.472;11.214;2023-07-13T02:28:22;1.67;;;0.98;;
25247;SDS011;13191;47.472;11.214;2023-07-13T02:30:48;3.22;;;0.85;;
25247;SDS011;13191;47.472;11.214;2023-07-13T02:33:14;1.45;;;0.63;;
25247;SDS011;13191;47.472;11.214;2023-07-13T02:35:40;1.40;;;0.60;;
25247;SDS011;13191;47.472;11.214;2023-07-13T02:38:05;3.28;;;0.98;;
25247;SDS011;13191;47.472;11.214;2023-07-13T02:40:31;1.88;;;1.02;;
25247;SDS011;13191;47.472;11.214;2023-07-13T02:43:00;1.30;;;0.50;;
25247;SDS011;13191;47.472;11.214;2023-07-13T02:45:26;2.47;;;1.20;;
25247;SDS011;13191;47.472;11.214;2023-07-13T02:47:52;1.88;;;0.93;;
25247;SDS011;13191;47.472;11.214;2023-07-13T02:50:17;2.08;;;1.00;;
25247;SDS011;13191;47.472;11.214;2023-07-13T02:52:43;2.72;;;1.00;;
25247;SDS011;13191;47.472;11.214;2023-07-13T02:55:08;2.25;;;0.90;;
25247;SDS011;13191;47.472;11.214;2023-07-13T02:57:34;1.25;;;0.68;;
25247;SDS011;13191;47.472;11.214;2023-07-13T03:00:00;3.45;;;1.30;;
25247;SDS011;13191;47.472;11.214;2023-07-13T03:02:30;2.40;;;0.88;;
25247;SDS011;13191;47.472;11.214;2023-07-13T03:04:57;1.38;;;0.70;;
25247;SDS011;13191;47.472;11.214;2023-07-13T03:07:22;5.60;;;1.33;;
25247;SDS011;13191;47.472;11.214;2023-07-13T03:09:48;3.08;;;1.02;;
25247;SDS011;13191;47.472;11.214;2023-07-13T03:12:13;2.45;;;1.08;;
25247;SDS011;13191;47.472;11.214;2023-07-13T03:14:39;2.60;;;1.00;;
25247;SDS011;13191;47.472;11.214;2023-07-13T03:17:04;2.72;;;1.33;;
25247;SDS011;13191;47.472;11.214;2023-07-13T03:19:30;2.78;;;0.88;;
25247;SDS011;13191;47.472;11.214;2023-07-13T03:21:55;1.52;;;0.77;;
25247;SDS011;13191;47.472;11.214;2023-07-13T03:24:21;1.75;;;0.88;;
25247;SDS011;13191;47.472;11.214;2023-07-13T03:26:48;1.42;;;0.88;;
25247;SDS011;13191;47.472;11.214;2023-07-13T03:29:14;1.65;;;0.80;;
25247;SDS011;13191;47.472;11.214;2023-07-13T03:31:39;2.05;;;0.90;;
25247;SDS011;13191;47.472;11.214;2023-07-13T03:34:05;2.05;;;0.77;;
25247;SDS011;13191;47.472;11.214;2023-07-13T03:36:31;1.40;;;0.70;;
25247;SDS011;13191;47.472;11.214;2023-07-13T03:38:58;2.60;;;1.08;;
25247;SDS011;13191;47.472;11.214;2023-07-13T03:41:25;3.10;;;1.13;;
25247;SDS011;13191;47.472;11.214;2023-07-13T03:43:51;1.83;;;0.75;;
25247;SDS011;13191;47.472;11.214;2023-07-13T03:46:17;2.17;;;1.10;;
25247;SDS011;13191;47.472;11.214;2023-07-13T03:48:43;1.80;;;0.80;;
25247;SDS011;13191;47.472;11.214;2023-07-13T03:51:10;2.40;;;1.00;;
25247;SDS011;13191;47.472;11.214;2023-07-13T03:53:39;1.30;;;0.73;;
25247;SDS011;13191;47.472;11.214;2023-07-13T03:56:06;1.55;;;0.80;;
25247;SDS011;13191;47.472;11.214;2023-07-13T03:58:33;1.50;;;0.73;;
25247;SDS011;13191;47.472;11.214;2023-07-13T04:01:01;1.45;;;0.80;;
25247;SDS011;13191;47.472;11.214;2023-07-13T04:03:28;3.80;;;0.80;;
25247;SDS011;13191;47.472;11.214;2023-07-13T04:05:55;2.85;;;1.00;;
25247;SDS011;13191;47.472;11.214;2023-07-13T04:08:24;1.42;;;0.73;;
25247;SDS011;13191;47.472;11.214;2023-07-13T04:10:53;1.67;;;0.90;;
25247;SDS011;13191;47.472;11.214;2023-07-13T04:13:19;1.30;;;0.88;;
25247;SDS011;13191;47.472;11.214;2023-07-13T04:15:45;0.77;;;0.50;;
25247;SDS011;13191;47.472;11.214;2023-07-13T04:18:10;1.73;;;0.95;;
25247;SDS011;13191;47.472;11.214;2023-07-13T04:20:36;2.22;;;1.15;;
25247;SDS011;13191;47.472;11.214;2023-07-13T04:23:02;2.17;;;0.80;;
25247;SDS011;13191;47.472;11.214;2023-07-13T04:25:27;1.88;;;0.93;;
25247;SDS011;13191;47.472;11.214;2023-07-13T04:27:53;1.83;;;0.82;;
25247;SDS011;13191;47.472;11.214;2023-07-13T04:30:19;1.70;;;0.90;;
25247;SDS011;13191;47.472;11.214;2023-07-13T04:32:45;2.17;;;1.00;;
25247;SDS011;13191;47.472;11.214;2023-07-13T04:35:11;1.38;;;0.77;;
25247;SDS011;13191;47.472;11.214;2023-07-13T04:37:36;1.92;;;0.82;;
25247;SDS011;13191;47.472;11.214;2023-07-13T04:40:02;2.13;;;0.98;;
25247;SDS011;13191;47.472;11.214;2023-07-13T04:42:28;1.30;;;0.57;;
25247;SDS011;13191;47.472;11.214;2023-07-13T04:44:54;1.90;;;0.90;;
25247;SDS011;13191;47.472;11.214;2023-07-13T04:47:20;2.17;;;1.00;;
25247;SDS011;13191;47.472;11.214;2023-07-13T04:49:46;4.20;;;0.77;;
25247;SDS011;13191;47.472;11.214;2023-07-13T04:52:11;1.88;;;1.10;;
25247;SDS011;13191;47.472;11.214;2023-07-13T04:54:37;1.48;;;1.00;;
25247;SDS011;13191;47.472;11.214;2023-07-13T04:57:04;1.63;;;0.80;;
25247;SDS011;13191;47.472;11.214;2023-07-13T04:59:33;2.88;;;0.88;;
25247;SDS011;13191;47.472;11.214;2023-07-13T05:01:59;1.90;;;0.80;;
25247;SDS011;13191;47.472;11.214;2023-07-13T05:04:24;1.27;;;0.55;;
25247;SDS011;13191;47.472;11.214;2023-07-13T05:06:50;1.98;;;0.93;;
25247;SDS011;13191;47.472;11.214;2023-07-13T05:09:15;1.25;;;0.80;;
25247;SDS011;13191;47.472;11.214;2023-07-13T05:11:41;2.45;;;0.93;;
25247;SDS011;13191;47.472;11.214;2023-07-13T05:14:08;2.13;;;0.98;;
25247;SDS011;13191;47.472;11.214;2023-07-13T05:16:34;3.50;;;0.80;;
25247;SDS011;13191;47.472;11.214;2023-07-13T05:19:00;2.28;;;1.00;;
25247;SDS011;13191;47.472;11.214;2023-07-13T05:21:26;2.60;;;0.70;;
25247;SDS011;13191;47.472;11.214;2023-07-13T05:23:51;2.50;;;0.95;;
25247;SDS011;13191;47.472;11.214;2023-07-13T05:26:17;1.52;;;0.73;;
25247;SDS011;13191;47.472;11.214;2023-07-13T05:28:42;1.80;;;0.88;;
25247;SDS011;13191;47.472;11.214;2023-07-13T05:31:09;1.23;;;0.75;;
25247;SDS011;13191;47.472;11.214;2023-07-13T05:33:35;1.40;;;0.63;;
25247;SDS011;13191;47.472;11.214;2023-07-13T05:36:01;1.75;;;0.70;;
25247;SDS011;13191;47.472;11.214;2023-07-13T05:38:27;1.63;;;0.80;;
25247;SDS011;13191;47.472;11.214;2023-07-13T05:40:53;2.47;;;0.82;;
25247;SDS011;13191;47.472;11.214;2023-07-13T05:43:22;1.58;;;0.63;;
25247;SDS011;13191;47.472;11.214;2023-07-13T05:45:48;2.45;;;0.60;;
25247;SDS011;13191;47.472;11.214;2023-07-13T05:48:14;0.85;;;0.60;;
25247;SDS011;13191;47.472;11.214;2023-07-13T05:50:40;1.20;;;0.70;;
25247;SDS011;13191;47.472;11.214;2023-07-13T05:53:06;1.50;;;0.70;;
25247;SDS011;13191;47.472;11.214;2023-07-13T05:55:31;1.33;;;0.70;;
25247;SDS011;13191;47.472;11.214;2023-07-13T05:57:58;0.85;;;0.63;;
25247;SDS011;13191;47.472;11.214;2023-07-13T06:00:25;2.40;;;0.70;;
25247;SDS011;13191;47.472;11.214;2023-07-13T06:02:51;3.33;;;1.52;;
25247;SDS011;13191;47.472;11.214;2023-07-13T06:05:17;4.93;;;1.15;;
25247;SDS011;13191;47.472;11.214;2023-07-13T06:07:42;1.67;;;0.70;;
25247;SDS011;13191;47.472;11.214;2023-07-13T06:10:08;1.48;;;0.80;;
25247;SDS011;13191;47.472;11.214;2023-07-13T06:12:34;1.35;;;0.80;;
25247;SDS011;13191;47.472;11.214;2023-07-13T06:15:01;1.27;;;0.82;;
25247;SDS011;13191;47.472;11.214;2023-07-13T06:17:26;0.98;;;0.60;;
25247;SDS011;13191;47.472;11.214;2023-07-13T06:19:52;3.33;;;0.68;;
25247;SDS011;13191;47.472;11.214;2023-07-13T06:22:17;1.60;;;0.73;;
25247;SDS011;13191;47.472;11.214;2023-07-13T06:24:43;1.45;;;0.80;;
25247;SDS011;13191;47.472;11.214;2023-07-13T06:27:08;2.00;;;1.08;;
25247;SDS011;13191;47.472;11.214;2023-07-13T06:29:34;1.48;;;0.80;;
25247;SDS011;13191;47.472;11.214;2023-07-13T06:31:59;1.75;;;0.73;;
25247;SDS011;13191;47.472;11.214;2023-07-13T06:34:25;1.88;;;0.93;;
25247;SDS011;13191;47.472;11.214;2023-07-13T06:36:51;3.78;;;0.98;;
25247;SDS011;13191;47.472;11.214;2023-07-13T06:39:16;1.50;;;0.70;;
25247;SDS011;13191;47.472;11.214;2023-07-13T06:41:42;1.50;;;0.80;;
25247;SDS011;13191;47.472;11.214;2023-07-13T06:44:07;2.58;;;0.80;;
25247;SDS011;13191;47.472;11.214;2023-07-13T06:46:33;1.88;;;0.90;;
25247;SDS011;13191;47.472;11.214;2023-07-13T06:48:59;2.45;;;1.00;;
25247;SDS011;13191;47.472;11.214;2023-07-13T06:51:24;1.75;;;0.80;;
25247;SDS011;13191;47.472;11.214;2023-07-13T06:53:51;2.50;;;1.08;;
25247;SDS011;13191;47.472;11.214;2023-07-13T06:56:16;2.17;;;1.13;;
25247;SDS011;13191;47.472;11.214;2023-07-13T06:58:42;2.67;;;0.80;;
25247;SDS011;13191;47.472;11.214;2023-07-13T07:01:08;1.17;;;0.70;;
25247;SDS011;13191;47.472;11.214;2023-07-13T07:03:34;1.95;;;0.88;;
25247;SDS011;13191;47.472;11.214;2023-07-13T07:06:00;2.08;;;1.00;;
25247;SDS011;13191;47.472;11.214;2023-07-13T07:08:49;1.60;;;0.70;;
25247;SDS011;13191;47.472;11.214;2023-07-13T07:11:20;1.80;;;0.82;;
25247;SDS011;13191;47.472;11.214;2023-07-13T07:13:50;1.98;;;1.10;;
25247;SDS011;13191;47.472;11.214;2023-07-13T07:16:16;1.02;;;0.70;;
25247;SDS011;13191;47.472;11.214;2023-07-13T07:18:43;1.77;;;1.00;;
25247;SDS011;13191;47.472;11.214;2023-07-13T07:21:09;2.55;;;1.10;;
25247;SDS011;13191;47.472;11.214;2023-07-13T07:23:35;2.17;;;1.05;;
25247;SDS011;13191;47.472;11.214;2023-07-13T07:26:00;2.28;;;1.08;;
25247;SDS011;13191;47.472;11.214;2023-07-13T07:28:26;2.65;;;1.10;;
25247;SDS011;13191;47.472;11.214;2023-07-13T07:30:54;1.83;;;1.05;;
25247;SDS011;13191;47.472;11.214;2023-07-13T07:33:25;3.05;;;1.23;;
25247;SDS011;13191;47.472;11.214;2023-07-13T07:35:51;2.83;;;1.25;;
25247;SDS011;13191;47.472;11.214;2023-07-13T07:38:16;2.28;;;1.05;;
25247;SDS011;13191;47.472;11.214;2023-07-13T07:40:42;2.33;;;1.00;;
25247;SDS011;13191;47.472;11.214;2023-07-13T07:43:09;3.47;;;1.40;;
25247;SDS011;13191;47.472;11.214;2023-07-13T07:45:35;5.40;;;1.90;;
25247;SDS011;13191;47.472;11.214;2023-07-13T07:48:02;2.83;;;1.60;;
25247;SDS011;13191;47.472;11.214;2023-07-13T07:50:29;5.88;;;1.30;;
25247;SDS011;13191;47.472;11.214;2023-07-13T07:52:55;3.80;;;1.83;;
25247;SDS011;13191;47.472;11.214;2023-07-13T07:55:21;1.85;;;0.95;;
25247;SDS011;13191;47.472;11.214;2023-07-13T07:57:47;3.83;;;1.38;;
25247;SDS011;13191;47.472;11.214;2023-07-13T08:00:14;2.72;;;1.48;;
25247;SDS011;13191;47.472;11.214;2023-07-13T08:02:40;5.53;;;1.65;;
25247;SDS011;13191;47.472;11.214;2023-07-13T08:05:07;4.40;;;1.40;;
25247;SDS011;13191;47.472;11.214;2023-07-13T08:07:34;7.05;;;1.30;;
25247;SDS011;13191;47.472;11.214;2023-07-13T08:10:00;2.22;;;1.30;;
25247;SDS011;13191;47.472;11.214;2023-07-13T08:12:25;2.78;;;1.70;;
25247;SDS011;13191;47.472;11.214;2023-07-13T08:14:51;3.70;;;1.40;;
25247;SDS011;13191;47.472;11.214;2023-07-13T08:17:22;5.00;;;1.50;;
25247;SDS011;13191;47.472;11.214;2023-07-13T08:19:49;2.85;;;1.52;;
25247;SDS011;13191;47.472;11.214;2023-07-13T08:22:14;3.17;;;1.48;;
25247;SDS011;13191;47.472;11.214;2023-07-13T08:24:40;4.55;;;1.42;;
25247;SDS011;13191;47.472;11.214;2023-07-13T08:27:07;2.72;;;1.45;;
25247;SDS011;13191;47.472;11.214;2023-07-13T08:29:33;8.60;;;2.00;;
25247;SDS011;13191;47.472;11.214;2023-07-13T08:31:59;3.30;;;1.42;;
25247;SDS011;13191;47.472;11.214;2023-07-13T08:34:24;3.65;;;1.42;;
25247;SDS011;13191;47.472;11.214;2023-07-13T08:36:50;3.00;;;1.33;;
25247;SDS011;13191;47.472;11.214;2023-07-13T08:39:15;4.60;;;1.65;;
25247;SDS011;13191;47.472;11.214;2023-07-13T08:41:41;3.65;;;1.80;;
25247;SDS011;13191;47.472;11.214;2023-07-13T08:44:10;4.38;;;1.58;;
25247;SDS011;13191;47.472;11.214;2023-07-13T08:46:47;3.05;;;1.60;;
25247;SDS011;13191;47.472;11.214;2023-07-13T08:49:18;4.88;;;1.73;;
25247;SDS011;13191;47.472;11.214;2023-07-13T08:56:56;2.58;;;1.58;;
25247;SDS011;13191;47.472;11.214;2023-07-13T08:59:24;4.00;;;2.28;;
25247;SDS011;13191;47.472;11.214;2023-07-13T09:02:00;5.20;;;1.77;;
25247;SDS011;13191;47.472;11.214;2023-07-13T09:04:36;3.90;;;1.88;;
25247;SDS011;13191;47.472;11.214;2023-07-13T09:12:35;2.42;;;1.40;;
25247;SDS011;13191;47.472;11.214;2023-07-13T09:15:21;4.60;;;1.70;;
25247;SDS011;13191;47.472;11.214;2023-07-13T09:17:51;3.92;;;1.30;;
25247;SDS011;13191;47.472;11.214;2023-07-13T09:22:56;3.55;;;0.85;;
25247;SDS011;13191;47.472;11.214;2023-07-13T09:25:33;1.77;;;0.93;;
25247;SDS011;13191;47.472;11.214;2023-07-13T09:28:01;1.45;;;0.85;;
25247;SDS011;13191;47.472;11.214;2023-07-13T09:30:39;1.58;;;0.90;;
25247;SDS011;13191;47.472;11.214;2023-07-13T09:33:18;2.30;;;0.90;;
25247;SDS011;13191;47.472;11.214;2023-07-13T09:35:44;3.15;;;0.88;;
25247;SDS011;13191;47.472;11.214;2023-07-13T09:38:14;1.85;;;0.85;;
25247;SDS011;13191;47.472;11.214;2023-07-13T09:40:52;2.40;;;1.10;;
25247;SDS011;13191;47.472;11.214;2023-07-13T09:43:25;1.83;;;0.68;;
25247;SDS011;13191;47.472;11.214;2023-07-13T09:45:53;3.30;;;0.85;;
25247;SDS011;13191;47.472;11.214;2023-07-13T09:48:20;1.00;;;0.60;;
25247;SDS011;13191;47.472;11.214;2023-07-13T09:50:45;1.10;;;0.57;;
25247;SDS011;13191;47.472;11.214;2023-07-13T09:53:13;2.08;;;0.70;;
25247;SDS011;13191;47.472;11.214;2023-07-13T09:55:41;3.28;;;0.80;;
25247;SDS011;13191;47.472;11.214;2023-07-13T10:00:34;1.20;;;0.65;;
25247;SDS011;13191;47.472;11.214;2023-07-13T10:03:05;1.33;;;0.88;;
25247;SDS011;13191;47.472;11.214;2023-07-13T10:05:43;1.35;;;0.65;;
25247;SDS011;13191;47.472;11.214;2023-07-13T10:08:17;1.97;;;0.53;;
25247;SDS011;13191;47.472;11.214;2023-07-13T10:10:44;1.73;;;0.73;;
25247;SDS011;13191;47.472;11.214;2023-07-13T10:13:23;6.07;;;0.68;;
25247;SDS011;13191;47.472;11.214;2023-07-13T10:15:55;1.15;;;0.57;;
25247;SDS011;13191;47.472;11.214;2023-07-13T10:18:22;2.80;;;0.50;;
25247;SDS011;13191;47.472;11.214;2023-07-13T10:20:51;1.85;;;0.40;;
25247;SDS011;13191;47.472;11.214;2023-07-13T10:23:25;3.00;;;0.65;;
25247;SDS011;13191;47.472;11.214;2023-07-13T10:25:57;6.85;;;0.80;;
25247;SDS011;13191;47.472;11.214;2023-07-13T10:28:35;2.40;;;0.70;;
25247;SDS011;13191;47.472;11.214;2023-07-13T10:31:02;0.93;;;0.50;;
25247;SDS011;13191;47.472;11.214;2023-07-13T10:33:35;1.92;;;0.50;;
25247;SDS011;13191;47.472;11.214;2023-07-13T10:36:09;1.63;;;0.68;;
25247;SDS011;13191;47.472;11.214;2023-07-13T10:39:01;1.05;;;0.50;;
25247;SDS011;13191;47.472;11.214;2023-07-13T10:41:30;2.83;;;0.88;;
25247;SDS011;13191;47.472;11.214;2023-07-13T10:43:58;0.32;;;0.30;;
25247;SDS011;13191;47.472;11.214;2023-07-13T10:46:26;0.80;;;0.35;;
25247;SDS011;13191;47.472;11.214;2023-07-13T10:48:57;1.20;;;0.43;;
25247;SDS011;13191;47.472;11.214;2023-07-13T10:51:26;0.70;;;0.38;;
25247;SDS011;13191;47.472;11.214;2023-07-13T10:56:53;6.93;;;0.70;;
25247;SDS011;13191;47.472;11.214;2023-07-13T10:59:33;2.90;;;0.32;;
25247;SDS011;13191;47.472;11.214;2023-07-13T11:02:08;0.35;;;0.25;;
25247;SDS011;13191;47.472;11.214;2023-07-13T11:04:41;0.47;;;0.40;;
25247;SDS011;13191;47.472;11.214;2023-07-13T11:07:16;0.82;;;0.40;;
25247;SDS011;13191;47.472;11.214;2023-07-13T11:09:55;1.30;;;0.30;;
25247;SDS011;13191;47.472;11.214;2023-07-13T11:20:23;1.30;;;0.35;;
25247;SDS011;13191;47.472;11.214;2023-07-13T11:25:33;0.52;;;0.30;;
25247;SDS011;13191;47.472;11.214;2023-07-13T11:33:21;0.40;;;0.30;;
25247;SDS011;13191;47.472;11.214;2023-07-13T11:36:04;1.38;;;0.50;;
25247;SDS011;13191;47.472;11.214;2023-07-13T11:41:17;0.65;;;0.40;;
25247;SDS011;13191;47.472;11.214;2023-07-13T11:43:50;1.08;;;0.50;;
25247;SDS011;13191;47.472;11.214;2023-07-13T11:46:21;6.72;;;0.63;;
25247;SDS011;13191;47.472;11.214;2023-07-13T11:48:49;1.17;;;0.68;;
25247;SDS011;13191;47.472;11.214;2023-07-13T11:54:00;1.17;;;0.60;;
25247;SDS011;13191;47.472;11.214;2023-07-13T11:56:28;1.08;;;0.55;;
25247;SDS011;13191;47.472;11.214;2023-07-13T11:58:57;2.33;;;0.80;;
25247;SDS011;13191;47.472;11.214;2023-07-13T12:01:29;0.98;;;0.60;;
25247;SDS011;13191;47.472;11.214;2023-07-13T12:03:58;1.15;;;0.40;;
25247;SDS011;13191;47.472;11.214;2023-07-13T12:06:30;1.05;;;0.50;;
25247;SDS011;13191;47.472;11.214;2023-07-13T12:09:01;1.58;;;0.63;;
25247;SDS011;13191;47.472;11.214;2023-07-13T12:11:28;1.55;;;0.50;;
25247;SDS011;13191;47.472;11.214;2023-07-13T12:13:55;2.10;;;0.98;;
25247;SDS011;13191;47.472;11.214;2023-07-13T12:16:30;1.00;;;0.60;;
25247;SDS011;13191;47.472;11.214;2023-07-13T12:18:57;1.65;;;0.75;;
25247;SDS011;13191;47.472;11.214;2023-07-13T12:21:29;1.10;;;0.57;;
25247;SDS011;13191;47.472;11.214;2023-07-13T12:23:57;1.55;;;0.60;;
25247;SDS011;13191;47.472;11.214;2023-07-13T12:26:23;2.85;;;0.70;;
25247;SDS011;13191;47.472;11.214;2023-07-13T12:28:52;1.95;;;0.70;;
25247;SDS011;13191;47.472;11.214;2023-07-13T12:31:31;0.80;;;0.60;;
25247;SDS011;13191;47.472;11.214;2023-07-13T12:34:06;0.63;;;0.40;;
25247;SDS011;13191;47.472;11.214;2023-07-13T12:36:33;1.38;;;0.63;;
25247;SDS011;13191;47.472;11.214;2023-07-13T12:39:04;1.50;;;0.65;;
25247;SDS011;13191;47.472;11.214;2023-07-13T12:41:38;1.40;;;0.60;;
25247;SDS011;13191;47.472;11.214;2023-07-13T12:44:04;3.42;;;0.60;;
25247;SDS011;13191;47.472;11.214;2023-07-13T12:46:34;2.42;;;0.70;;
25247;SDS011;13191;47.472;11.214;2023-07-13T12:49:00;1.42;;;0.75;;
25247;SDS011;13191;47.472;11.214;2023-07-13T12:51:32;1.27;;;0.60;;
25247;SDS011;13191;47.472;11.214;2023-07-13T12:54:05;0.80;;;0.60;;
25247;SDS011;13191;47.472;11.214;2023-07-13T12:56:44;1.08;;;0.57;;
25247;SDS011;13191;47.472;11.214;2023-07-13T12:59:18;0.80;;;0.47;;
25247;SDS011;13191;47.472;11.214;2023-07-13T13:01:46;1.42;;;0.70;;
25247;SDS011;13191;47.472;11.214;2023-07-13T13:04:14;1.90;;;0.90;;
25247;SDS011;13191;47.472;11.214;2023-07-13T13:06:40;1.80;;;0.77;;
25247;SDS011;13191;47.472;11.214;2023-07-13T13:09:10;1.48;;;0.70;;
25247;SDS011;13191;47.472;11.214;2023-07-13T13:11:38;2.47;;;0.85;;
25247;SDS011;13191;47.472;11.214;2023-07-13T13:14:05;2.08;;;1.27;;
25247;SDS011;13191;47.472;11.214;2023-07-13T13:16:33;1.42;;;0.70;;
25247;SDS011;13191;47.472;11.214;2023-07-13T13:19:13;2.88;;;0.95;;
25247;SDS011;13191;47.472;11.214;2023-07-13T13:21:41;1.00;;;0.63;;
25247;SDS011;13191;47.472;11.214;2023-07-13T13:24:12;2.75;;;1.08;;
25247;SDS011;13191;47.472;11.214;2023-07-13T13:26:40;3.20;;;0.70;;
25247;SDS011;13191;47.472;11.214;2023-07-13T13:29:17;2.60;;;1.13;;
25247;SDS011;13191;47.472;11.214;2023-07-13T13:31:44;1.67;;;0.88;;
25247;SDS011;13191;47.472;11.214;2023-07-13T13:34:10;3.97;;;0.93;;
25247;SDS011;13191;47.472;11.214;2023-07-13T13:36:38;1.42;;;0.80;;
25247;SDS011;13191;47.472;11.214;2023-07-13T13:39:22;3.90;;;0.93;;
25247;SDS011;13191;47.472;11.214;2023-07-13T13:41:50;2.45;;;1.20;;
25247;SDS011;13191;47.472;11.214;2023-07-13T13:44:17;2.13;;;0.90;;
25247;SDS011;13191;47.472;11.214;2023-07-13T13:46:45;6.28;;;1.10;;
25247;SDS011;13191;47.472;11.214;2023-07-13T13:49:15;1.52;;;0.70;;
25247;SDS011;13191;47.472;11.214;2023-07-13T13:51:43;2.23;;;0.83;;
25247;SDS011;13191;47.472;11.214;2023-07-13T13:54:13;1.20;;;0.65;;
25247;SDS011;13191;47.472;11.214;2023-07-13T13:56:41;2.00;;;0.90;;
25247;SDS011;13191;47.472;11.214;2023-07-13T13:59:08;1.38;;;0.65;;
25247;SDS011;13191;47.472;11.214;2023-07-13T14:01:33;2.25;;;1.08;;
25247;SDS011;13191;47.472;11.214;2023-07-13T14:04:00;1.75;;;1.00;;
25247;SDS011;13191;47.472;11.214;2023-07-13T14:06:25;4.60;;;1.00;;
25247;SDS011;13191;47.472;11.214;2023-07-13T14:08:51;2.35;;;1.00;;
25247;SDS011;13191;47.472;11.214;2023-07-13T14:11:17;5.30;;;0.90;;
25247;SDS011;13191;47.472;11.214;2023-07-13T14:13:46;2.33;;;1.10;;
25247;SDS011;13191;47.472;11.214;2023-07-13T14:16:17;1.65;;;1.00;;
25247;SDS011;13191;47.472;11.214;2023-07-13T14:18:45;3.22;;;1.10;;
25247;SDS011;13191;47.472;11.214;2023-07-13T14:21:15;2.22;;;1.15;;
25247;SDS011;13191;47.472;11.214;2023-07-13T14:23:45;1.55;;;0.82;;
25247;SDS011;13191;47.472;11.214;2023-07-13T14:26:16;2.60;;;1.17;;
25247;SDS011;13191;47.472;11.214;2023-07-13T14:28:46;3.13;;;1.20;;
25247;SDS011;13191;47.472;11.214;2023-07-13T14:31:14;2.95;;;1.33;;
25247;SDS011;13191;47.472;11.214;2023-07-13T14:33:40;2.28;;;1.10;;
25247;SDS011;13191;47.472;11.214;2023-07-13T14:36:18;2.00;;;1.00;;
25247;SDS011;13191;47.472;11.214;2023-07-13T14:38:46;1.25;;;0.82;;
25247;SDS011;13191;47.472;11.214;2023-07-13T14:41:12;4.97;;;1.23;;
25247;SDS011;13191;47.472;11.214;2023-07-13T14:43:38;1.38;;;0.90;;
25247;SDS011;13191;47.472;11.214;2023-07-13T14:46:03;2.65;;;1.00;;
25247;SDS011;13191;47.472;11.214;2023-07-13T14:48:29;2.17;;;1.00;;
25247;SDS011;13191;47.472;11.214;2023-07-13T14:50:56;2.85;;;1.02;;
25247;SDS011;13191;47.472;11.214;2023-07-13T14:53:24;2.35;;;1.13;;
25247;SDS011;13191;47.472;11.214;2023-07-13T14:55:52;1.90;;;1.10;;
25247;SDS011;13191;47.472;11.214;2023-07-13T14:58:18;2.75;;;1.17;;
25247;SDS011;13191;47.472;11.214;2023-07-13T15:00:44;2.53;;;1.30;;
25247;SDS011;13191;47.472;11.214;2023-07-13T15:03:16;1.90;;;1.10;;
25247;SDS011;13191;47.472;11.214;2023-07-13T15:05:46;1.88;;;1.00;;
25247;SDS011;13191;47.472;11.214;2023-07-13T15:08:13;2.15;;;1.00;;
25247;SDS011;13191;47.472;11.214;2023-07-13T15:10:39;2.55;;;1.20;;
25247;SDS011;13191;47.472;11.214;2023-07-13T15:15:45;2.42;;;1.20;;
25247;SDS011;13191;47.472;11.214;2023-07-13T15:18:19;3.17;;;1.33;;
25247;SDS011;13191;47.472;11.214;2023-07-13T15:20:49;2.55;;;1.35;;
25247;SDS011;13191;47.472;11.214;2023-07-13T15:23:19;3.97;;;1.50;;